createdAt,value
2019-05-03T00:02:28.196Z,96433.05
2019-05-03T00:05:21.954Z,96435.27
2019-05-03T00:07:53.673Z,96428.47
2019-05-03T00:10:23.314Z,96429.04
2019-05-03T00:12:52.907Z,96421.88
2019-05-03T00:15:47.850Z,96421.13
2019-05-03T00:18:17.510Z,96421.16
2019-05-03T00:20:47.017Z,96418.65
2019-05-03T00:23:16.566Z,96414.23
2019-05-03T00:25:46.127Z,96417.72
2019-05-03T00:28:15.822Z,96411.42
2019-05-03T00:30:45.771Z,96408.09
2019-05-03T00:33:15.298Z,96414.97
2019-05-03T00:35:56.225Z,96409.42
2019-05-03T00:38:25.757Z,96406.73
2019-05-03T00:40:55.376Z,96407.70
2019-05-03T00:43:24.938Z,96402.73
2019-05-03T00:45:54.466Z,96404.91
2019-05-03T00:48:23.934Z,96399.77
2019-05-03T00:50:53.490Z,96405.38
2019-05-03T00:53:22.999Z,96402.61
2019-05-03T00:55:52.675Z,96404.20
2019-05-03T00:58:22.561Z,96401.29
2019-05-03T01:00:52.553Z,96398.35
2019-05-03T01:03:22.391Z,96400.16
2019-05-03T01:05:52.963Z,96398.67
2019-05-03T01:08:22.629Z,96403.30
2019-05-03T01:10:52.188Z,96400.92
2019-05-03T01:13:21.972Z,96402.92
2019-05-03T01:16:06.354Z,96398.63
2019-05-03T01:18:36.039Z,96393.11
2019-05-03T01:21:05.555Z,96391.22
2019-05-03T01:23:35.073Z,96397.76
2019-05-03T01:26:04.787Z,96394.05
2019-05-03T01:28:34.279Z,96398.11
2019-05-03T01:31:03.830Z,96401.01
2019-05-03T01:33:33.415Z,96397.38
2019-05-03T01:36:02.977Z,96397.25
2019-05-03T01:38:32.579Z,96398.83
2019-05-03T01:41:02.122Z,96403.44
2019-05-03T01:43:31.953Z,96401.27
2019-05-03T01:46:02.738Z,96398.89
2019-05-03T01:48:38.971Z,96401.73
2019-05-03T01:51:18.199Z,96407.78
2019-05-03T01:53:48.450Z,96398.25
2019-05-03T01:56:18.622Z,96398.27
2019-05-03T01:58:48.185Z,96400.61
2019-05-03T02:01:24.769Z,96406.53
2019-05-03T02:04:00.475Z,96399.36
2019-05-03T02:06:31.856Z,96403.52
2019-05-03T02:09:01.659Z,96402.87
2019-05-03T02:11:32.632Z,96405.69
2019-05-03T02:14:02.256Z,96408.44
2019-05-03T02:16:32.527Z,96411.70
2019-05-03T02:19:02.456Z,96410.14
2019-05-03T02:21:32.266Z,96410.83
2019-05-03T02:24:02.608Z,96414.48
2019-05-03T02:26:32.174Z,96404.58
2019-05-03T02:29:01.901Z,96410.37
2019-05-03T02:31:32.836Z,96408.68
2019-05-03T02:34:03.520Z,96414.24
2019-05-03T02:36:33.848Z,96411.27
2019-05-03T02:39:05.391Z,96404.43
2019-05-03T02:41:35.546Z,96402.98
2019-05-03T02:44:06.294Z,96407.22
2019-05-03T02:46:45.453Z,96408.53
2019-05-03T02:49:21.479Z,96412.48
2019-05-03T02:51:51.054Z,96411.80
2019-05-03T02:54:20.577Z,96410.66
2019-05-03T02:56:50.086Z,96415.80
2019-05-03T02:59:19.578Z,96415.51
2019-05-03T03:01:49.262Z,96413.30
2019-05-03T03:04:19.026Z,96409.41
2019-05-03T03:06:48.778Z,96426.47
2019-05-03T03:09:20.228Z,96414.34
2019-05-03T03:11:51.603Z,96416.14
2019-05-03T03:14:25.420Z,96419.86
2019-05-03T03:16:56.175Z,96426.56
2019-05-03T03:19:27.578Z,96418.64
2019-05-03T03:22:00.065Z,96419.52
2019-05-03T03:24:31.102Z,96424.97
2019-05-03T03:27:01.115Z,96423.25
2019-05-03T03:29:31.408Z,96426.62
2019-05-03T03:32:19.182Z,96428.09
2019-05-03T03:35:11.138Z,96431.00
2019-05-03T03:37:35.847Z,96433.09
2019-05-03T03:40:06.170Z,96432.96
2019-05-03T03:42:36.205Z,96430.89
2019-05-03T03:45:06.386Z,96425.34
2019-05-03T03:47:39.069Z,96431.12
2019-05-03T03:50:08.851Z,96428.59
2019-05-03T03:52:38.865Z,96429.00
2019-05-03T03:55:09.950Z,96430.11
2019-05-03T03:57:39.608Z,96432.53
2019-05-03T04:00:09.390Z,96438.39
2019-05-03T04:02:39.806Z,96438.53
2019-05-03T04:05:09.475Z,96449.05
2019-05-03T04:07:39.364Z,96438.90
2019-05-03T04:10:09.199Z,96448.85
2019-05-03T04:12:39.814Z,96456.02
2019-05-03T04:15:28.215Z,96453.43
2019-05-03T04:18:17.374Z,96457.38
2019-05-03T04:20:47.015Z,96467.50
2019-05-03T04:23:16.686Z,96474.52
2019-05-03T04:25:46.275Z,96476.91
2019-05-03T04:28:16.428Z,96470.86
2019-05-03T04:30:46.177Z,96476.03
2019-05-03T04:33:16.115Z,96478.10
2019-05-03T04:35:46.492Z,96479.96
2019-05-03T04:38:16.544Z,96482.25
2019-05-03T04:40:46.130Z,96484.69
2019-05-03T04:43:16.676Z,96481.67
2019-05-03T04:46:01.324Z,96486.45
2019-05-03T04:48:30.938Z,96489.02
2019-05-03T04:51:00.449Z,96490.73
2019-05-03T04:53:31.111Z,96487.33
2019-05-03T04:56:00.785Z,96487.35
2019-05-03T04:58:30.372Z,96495.80
2019-05-03T05:00:59.999Z,96497.17
2019-05-03T05:03:29.516Z,96499.75
2019-05-03T05:05:59.619Z,96491.08
2019-05-03T05:08:29.206Z,96486.22
2019-05-03T05:10:58.755Z,96503.12
2019-05-03T05:13:28.560Z,96506.66
2019-05-03T05:15:58.096Z,96505.38
2019-05-03T05:18:41.029Z,96493.78
2019-05-03T05:21:32.923Z,96502.28
2019-05-03T05:24:05.554Z,96497.22
2019-05-03T05:26:57.427Z,96501.16
2019-05-03T05:29:29.117Z,96501.05
2019-05-03T05:31:58.688Z,96504.83
2019-05-03T05:34:28.369Z,96505.66
2019-05-03T05:36:57.892Z,96503.86
2019-05-03T05:39:27.587Z,96510.13
2019-05-03T05:41:57.091Z,96505.03
2019-05-03T05:44:26.843Z,96508.24
2019-05-03T05:47:34.569Z,96507.50
2019-05-03T05:50:30.205Z,96517.06
2019-05-03T05:52:59.743Z,96518.56
2019-05-03T05:55:51.533Z,96519.12
2019-05-03T05:58:39.850Z,96522.85
2019-05-03T06:01:14.745Z,96520.70
2019-05-03T06:03:44.889Z,96517.87
2019-05-03T06:06:19.945Z,96518.19
2019-05-03T06:09:05.063Z,96514.92
2019-05-03T06:11:40.312Z,96528.77
2019-05-03T06:14:15.598Z,96528.78
2019-05-03T06:17:10.123Z,96531.13
2019-05-03T06:19:47.431Z,96537.78
2019-05-03T06:22:35.953Z,96533.17
2019-05-03T06:25:16.563Z,96532.66
2019-05-03T06:27:46.782Z,96528.36
2019-05-03T06:30:27.391Z,96533.57
2019-05-03T06:32:56.935Z,96546.08
2019-05-03T06:35:26.568Z,96540.29
2019-05-03T06:37:56.152Z,96536.15
2019-05-03T06:40:26.174Z,96542.92
2019-05-03T06:43:08.352Z,96551.03
2019-05-03T06:45:27.595Z,96553.20
2019-05-03T06:47:57.144Z,96552.16
2019-05-03T06:50:28.960Z,96556.39
2019-05-03T06:52:59.797Z,96563.28
2019-05-03T06:55:29.351Z,96564.61
2019-05-03T06:57:58.925Z,96561.78
2019-05-03T07:00:50.245Z,96570.66
2019-05-03T07:03:44.824Z,96562.16
2019-05-03T07:06:34.422Z,96569.57
2019-05-03T07:09:09.500Z,96566.71
2019-05-03T07:11:39.219Z,96571.25
2019-05-03T07:14:08.805Z,96576.28
2019-05-03T07:16:38.331Z,96571.73
2019-05-03T07:19:08.025Z,96576.77
2019-05-03T07:21:37.733Z,96581.30
2019-05-03T07:24:07.233Z,96576.77
2019-05-03T07:26:36.915Z,96583.97
2019-05-03T07:29:07.417Z,96576.38
2019-05-03T07:31:36.934Z,96576.73
2019-05-03T07:34:06.575Z,96582.74
2019-05-03T07:36:36.167Z,96585.78
2019-05-03T07:39:07.655Z,96585.08
2019-05-03T07:41:37.338Z,96586.91
2019-05-03T07:44:08.722Z,96578.47
2019-05-03T07:46:38.294Z,96576.63
2019-05-03T07:49:08.132Z,96575.73
2019-05-03T07:51:37.757Z,96567.97
2019-05-03T07:54:07.361Z,96573.96
2019-05-03T07:56:48.169Z,96577.64
2019-05-03T07:59:18.132Z,96578.01
2019-05-03T08:01:50.442Z,96574.60
2019-05-03T08:04:20.134Z,96577.34
2019-05-03T08:06:49.770Z,96573.51
2019-05-03T08:09:19.434Z,96573.41
2019-05-03T08:11:49.203Z,96579.88
2019-05-03T08:14:19.089Z,96579.41
2019-05-03T08:16:48.732Z,96576.98
2019-05-03T08:19:18.368Z,96578.97
2019-05-03T08:21:47.898Z,96572.69
2019-05-03T08:24:17.492Z,96575.84
2019-05-03T08:26:47.087Z,96580.13
2019-05-03T08:29:19.365Z,96580.18
2019-05-03T08:32:00.896Z,96581.14
2019-05-03T08:34:41.156Z,96579.55
2019-05-03T08:37:16.969Z,96583.86
2019-05-03T08:39:46.674Z,96579.88
2019-05-03T08:42:25.498Z,96585.22
2019-05-03T08:44:55.439Z,96587.84
2019-05-03T08:47:25.409Z,96587.05
2019-05-03T08:49:55.473Z,96587.72
2019-05-03T08:52:25.123Z,96594.63
2019-05-03T08:54:55.152Z,96596.00
2019-05-03T08:57:25.311Z,96592.20
2019-05-03T08:59:55.268Z,96586.76
2019-05-03T09:02:25.748Z,96589.39
2019-05-03T09:04:55.587Z,96591.72
2019-05-03T09:07:58.561Z,96589.62
2019-05-03T09:10:47.705Z,96589.13
2019-05-03T09:13:18.875Z,96592.72
2019-05-03T09:15:48.819Z,96587.98
2019-05-03T09:18:18.427Z,96589.80
2019-05-03T09:20:48.057Z,96585.00
2019-05-03T09:23:17.855Z,96591.45
2019-05-03T09:25:47.633Z,96592.28
2019-05-03T09:28:19.726Z,96590.94
2019-05-03T09:30:49.237Z,96599.23
2019-05-03T09:33:18.948Z,96598.73
2019-05-03T09:35:49.382Z,96600.23
2019-05-03T09:38:18.959Z,96610.16
2019-05-03T09:40:48.568Z,96612.78
2019-05-03T09:43:18.084Z,96607.81
2019-05-03T09:45:47.621Z,96612.94
2019-05-03T09:48:17.254Z,96613.77
2019-05-03T09:50:46.775Z,96608.97
2019-05-03T09:53:17.937Z,96613.27
2019-05-03T09:55:47.630Z,96614.25
2019-05-03T09:58:17.223Z,96612.73
2019-05-03T10:00:48.147Z,96613.77
2019-05-03T10:03:17.721Z,96616.90
2019-05-03T10:05:47.280Z,96614.86
2019-05-03T10:08:16.988Z,96619.00
2019-05-03T10:11:05.535Z,96618.16
2019-05-03T10:13:35.700Z,96620.00
2019-05-03T10:16:06.157Z,96622.20
2019-05-03T10:18:36.309Z,96621.71
2019-05-03T10:21:06.068Z,96617.57
2019-05-03T10:23:39.834Z,96611.31
2019-05-03T10:26:09.892Z,96617.92
2019-05-03T10:28:41.465Z,96612.80
2019-05-03T10:31:10.965Z,96608.83
2019-05-03T10:33:59.763Z,96609.81
2019-05-03T10:36:29.269Z,96608.00
2019-05-03T10:38:58.907Z,96601.40
2019-05-03T10:41:28.532Z,96607.20
2019-05-03T10:43:58.199Z,96596.96
2019-05-03T10:46:27.761Z,96599.45
2019-05-03T10:48:57.367Z,96596.32
2019-05-03T10:51:29.124Z,96589.05
2019-05-03T10:54:00.015Z,96598.31
2019-05-03T10:56:48.634Z,96592.02
2019-05-03T10:59:19.439Z,96593.68
2019-05-03T11:02:14.146Z,96588.22
2019-05-03T11:04:46.139Z,96588.71
2019-05-03T11:07:15.025Z,96595.97
2019-05-03T11:09:49.774Z,96599.95
2019-05-03T11:12:16.004Z,96601.45
2019-05-03T11:14:45.699Z,96605.25
2019-05-03T11:17:15.250Z,96603.59
2019-05-03T11:19:45.406Z,96596.48
2019-05-03T11:22:15.198Z,96598.14
2019-05-03T11:24:45.444Z,96598.95
2019-05-03T11:27:19.851Z,96594.31
2019-05-03T11:29:50.320Z,96588.03
2019-05-03T11:32:37.440Z,96593.33
2019-05-03T11:35:20.284Z,96586.71
2019-05-03T11:37:57.015Z,96593.01
2019-05-03T11:40:26.684Z,96597.31
2019-05-03T11:42:58.070Z,96592.34
2019-05-03T11:45:27.728Z,96598.30
2019-05-03T11:47:57.372Z,96594.16
2019-05-03T11:50:26.983Z,96593.34
2019-05-03T11:52:56.572Z,96595.98
2019-05-03T11:55:38.731Z,96597.66
2019-05-03T11:58:18.824Z,96598.48
2019-05-03T12:00:51.802Z,96593.98
2019-05-03T12:03:27.217Z,96579.53
2019-05-03T12:05:58.735Z,96584.45
2019-05-03T12:08:34.593Z,96581.20
2019-05-03T12:11:05.747Z,96589.52
2019-05-03T12:13:35.722Z,96586.25
2019-05-03T12:16:17.837Z,96593.82
2019-05-03T12:18:49.115Z,96582.16
2019-05-03T12:21:10.130Z,96581.14
2019-05-03T12:23:40.219Z,96587.13
2019-05-03T12:26:13.437Z,96586.95
2019-05-03T12:28:41.532Z,96590.50
2019-05-03T12:31:25.475Z,96586.06
2019-05-03T12:33:42.350Z,96590.83
2019-05-03T12:36:11.934Z,96590.55
2019-05-03T12:38:41.525Z,96594.53
2019-05-03T12:41:11.439Z,96586.16
2019-05-03T12:43:41.545Z,96587.97
2019-05-03T12:46:11.134Z,96587.72
2019-05-03T12:48:40.820Z,96586.98
2019-05-03T12:51:10.946Z,96578.87
2019-05-03T12:53:40.722Z,96583.89
2019-05-03T12:56:12.966Z,96582.55
2019-05-03T12:59:05.757Z,96576.56
2019-05-03T13:01:45.413Z,96573.02
2019-05-03T13:04:18.774Z,96573.88
2019-05-03T13:06:54.961Z,96571.91
2019-05-03T13:09:25.256Z,96560.97
2019-05-03T13:11:59.105Z,96571.81
2019-05-03T13:14:28.007Z,96562.30
2019-05-03T13:16:57.510Z,96568.40
2019-05-03T13:19:27.120Z,96559.56
2019-05-03T13:21:56.757Z,96565.32
2019-05-03T13:24:26.380Z,96560.45
2019-05-03T13:26:55.871Z,96566.22
2019-05-03T13:29:25.744Z,96569.02
2019-05-03T13:32:01.651Z,96565.41
2019-05-03T13:34:26.668Z,96560.41
2019-05-03T13:36:56.233Z,96556.45
2019-05-03T13:39:26.471Z,96552.27
2019-05-03T13:41:56.271Z,96546.28
2019-05-03T13:44:25.863Z,96546.28
2019-05-03T13:46:55.371Z,96542.44
2019-05-03T13:49:26.488Z,96546.47
2019-05-03T13:51:56.131Z,96543.08
2019-05-03T13:54:25.737Z,96550.83
2019-05-03T13:56:55.377Z,96544.95
2019-05-03T13:59:25.151Z,96545.78
2019-05-03T14:01:55.010Z,96543.95
2019-05-03T14:04:24.721Z,96537.42
2019-05-03T14:06:55.213Z,96532.47
2019-05-03T14:09:25.188Z,96535.31
2019-05-03T14:11:55.293Z,96534.33
2019-05-03T14:14:25.819Z,96533.71
2019-05-03T14:16:55.534Z,96534.60
2019-05-03T14:19:31.556Z,96533.14
2019-05-03T14:22:02.709Z,96527.84
2019-05-03T14:24:32.312Z,96529.16
2019-05-03T14:27:02.440Z,96534.47
2019-05-03T14:29:32.267Z,96525.20
2019-05-03T14:32:01.764Z,96522.06
2019-05-03T14:34:31.435Z,96521.59
2019-05-03T14:37:00.993Z,96522.11
2019-05-03T14:39:30.547Z,96524.43
2019-05-03T14:42:00.153Z,96527.75
2019-05-03T14:44:29.783Z,96528.92
2019-05-03T14:46:59.400Z,96529.92
2019-05-03T14:49:29.020Z,96530.75
2019-05-03T14:51:58.489Z,96528.44
2019-05-03T14:54:30.224Z,96532.92
2019-05-03T14:57:31.003Z,96528.94
2019-05-03T15:00:06.585Z,96527.78
2019-05-03T15:02:47.470Z,96531.28
2019-05-03T15:05:14.766Z,96525.15
2019-05-03T15:07:45.854Z,96525.82
2019-05-03T15:10:15.495Z,96523.36
2019-05-03T15:12:45.346Z,96532.96
2019-05-03T15:15:15.197Z,96527.02
2019-05-03T15:17:45.786Z,96521.73
2019-05-03T15:20:15.625Z,96519.76
2019-05-03T15:22:45.543Z,96522.39
2019-05-03T15:25:15.180Z,96522.39
2019-05-03T15:27:44.958Z,96527.86
2019-05-03T15:30:15.595Z,96524.89
2019-05-03T15:32:57.047Z,96520.08
2019-05-03T15:35:17.047Z,96515.16
2019-05-03T15:37:46.669Z,96520.75
2019-05-03T15:40:16.300Z,96520.26
2019-05-03T15:42:51.664Z,96522.45
2019-05-03T15:45:58.244Z,96522.45
2019-05-03T15:48:29.855Z,96520.45
2019-05-03T15:50:59.459Z,96515.83
2019-05-03T15:53:29.002Z,96525.43
2019-05-03T15:55:58.579Z,96507.70
2019-05-03T15:58:28.219Z,96512.02
2019-05-03T16:00:57.763Z,96516.34
2019-05-03T16:03:27.477Z,96509.73
2019-05-03T16:05:57.039Z,96511.38
2019-05-03T16:08:26.680Z,96510.55
2019-05-03T16:10:56.282Z,96515.53
2019-05-03T16:13:25.946Z,96519.17
2019-05-03T16:15:55.612Z,96514.03
2019-05-03T16:18:25.170Z,96517.66
2019-05-03T16:20:54.874Z,96519.81
2019-05-03T16:23:24.987Z,96517.50
2019-05-03T16:25:54.849Z,96521.14
2019-05-03T16:28:36.453Z,96515.34
2019-05-03T16:31:11.664Z,96516.50
2019-05-03T16:33:41.471Z,96521.32
2019-05-03T16:36:11.194Z,96523.97
2019-05-03T16:38:40.783Z,96527.77
2019-05-03T16:41:10.289Z,96524.95
2019-05-03T16:43:39.876Z,96520.48
2019-05-03T16:46:09.479Z,96525.27
2019-05-03T16:48:39.008Z,96525.77
2019-05-03T16:51:08.718Z,96523.63
2019-05-03T16:53:38.655Z,96522.63
2019-05-03T16:56:08.318Z,96521.14
2019-05-03T16:58:37.896Z,96521.80
2019-05-03T17:01:07.509Z,96524.45
2019-05-03T17:03:45.686Z,96526.44
2019-05-03T17:06:28.439Z,96524.45
2019-05-03T17:09:22.550Z,96531.58
2019-05-03T17:12:06.421Z,96532.41
2019-05-03T17:14:36.068Z,96529.59
2019-05-03T17:17:07.291Z,96530.92
2019-05-03T17:19:37.061Z,96539.03
2019-05-03T17:22:06.630Z,96542.69
2019-05-03T17:24:36.300Z,96545.50
2019-05-03T17:27:05.945Z,96545.00
2019-05-03T17:29:35.452Z,96548.81
2019-05-03T17:32:05.147Z,96537.73
2019-05-03T17:34:34.833Z,96552.62
2019-05-03T17:37:04.974Z,96551.14
2019-05-03T17:40:11.967Z,96551.63
2019-05-03T17:42:59.248Z,96547.00
2019-05-03T17:45:35.070Z,96551.30
2019-05-03T17:48:04.627Z,96548.16
2019-05-03T17:50:34.834Z,96547.82
2019-05-03T17:53:34.465Z,96553.61
2019-05-03T17:56:09.976Z,96545.67
2019-05-03T17:58:45.948Z,96548.34
2019-05-03T18:01:37.393Z,96550.66
2019-05-03T18:04:15.602Z,96554.28
2019-05-03T18:06:58.421Z,96551.49
2019-05-03T18:09:31.862Z,96549.66
2019-05-03T18:12:04.582Z,96549.98
2019-05-03T18:14:34.617Z,96549.14
2019-05-03T18:17:05.773Z,96545.65
2019-05-03T18:19:35.477Z,96548.91
2019-05-03T18:22:05.364Z,96552.55
2019-05-03T18:24:35.329Z,96556.66
2019-05-03T18:27:05.082Z,96561.09
2019-05-03T18:29:34.809Z,96563.08
2019-05-03T18:32:05.480Z,96565.40
2019-05-03T18:34:35.211Z,96571.69
2019-05-03T18:37:04.942Z,96565.23
2019-05-03T18:39:34.763Z,96574.81
2019-05-03T18:42:06.784Z,96573.17
2019-05-03T18:44:44.916Z,96575.81
2019-05-03T18:47:18.101Z,96570.34
2019-05-03T18:49:47.689Z,96566.39
2019-05-03T18:52:17.487Z,96562.74
2019-05-03T18:54:47.068Z,96565.55
2019-05-03T18:57:16.720Z,96572.97
2019-05-03T18:59:46.245Z,96566.36
2019-05-03T19:02:15.806Z,96565.99
2019-05-03T19:04:48.857Z,96575.72
2019-05-03T19:07:29.918Z,96575.84
2019-05-03T19:10:07.189Z,96581.10
2019-05-03T19:12:45.042Z,96587.22
2019-05-03T19:15:14.598Z,96581.27
2019-05-03T19:17:50.070Z,96581.55
2019-05-03T19:20:19.748Z,96582.56
2019-05-03T19:22:49.300Z,96584.48
2019-05-03T19:25:18.992Z,96586.14
2019-05-03T19:27:48.555Z,96591.94
2019-05-03T19:30:34.803Z,96595.39
2019-05-03T19:33:05.789Z,96593.39
2019-05-03T19:35:36.472Z,96597.02
2019-05-03T19:38:06.042Z,96592.05
2019-05-03T19:40:35.587Z,96592.88
2019-05-03T19:43:06.118Z,96591.04
2019-05-03T19:45:35.664Z,96598.16
2019-05-03T19:48:09.737Z,96593.19
2019-05-03T19:50:39.444Z,96599.13
2019-05-03T19:53:23.156Z,96596.79
2019-05-03T19:55:52.755Z,96590.21
2019-05-03T19:58:22.243Z,96594.02
2019-05-03T20:01:10.886Z,96594.48
2019-05-03T20:03:54.561Z,96595.00
2019-05-03T20:06:42.281Z,96597.95
2019-05-03T20:09:15.114Z,96595.96
2019-05-03T20:11:46.058Z,96593.06
2019-05-03T20:14:15.831Z,96587.28
2019-05-03T20:16:45.566Z,96589.41
2019-05-03T20:19:20.899Z,96589.59
2019-05-03T20:21:46.376Z,96588.19
2019-05-03T20:24:15.994Z,96593.00
2019-05-03T20:26:45.502Z,96593.47
2019-05-03T20:29:15.205Z,96593.60
2019-05-03T20:31:44.816Z,96596.55
2019-05-03T20:34:15.839Z,96590.52
2019-05-03T20:36:45.464Z,96600.72
2019-05-03T20:39:15.225Z,96597.64
2019-05-03T20:41:45.339Z,96601.03
2019-05-03T20:44:44.805Z,96600.13
2019-05-03T20:47:39.246Z,96604.89
2019-05-03T20:50:15.639Z,96594.45
2019-05-03T20:52:45.439Z,96593.60
2019-05-03T20:55:15.595Z,96593.73
2019-05-03T20:57:45.232Z,96599.63
2019-05-03T21:00:17.079Z,96597.88
2019-05-03T21:02:53.404Z,96604.90
2019-05-03T21:05:27.138Z,96597.78
2019-05-03T21:07:49.385Z,96600.53
2019-05-03T21:10:18.999Z,96604.76
2019-05-03T21:12:48.578Z,96601.14
2019-05-03T21:15:29.665Z,96610.59
2019-05-03T21:18:15.813Z,96602.98
2019-05-03T21:20:59.552Z,96606.98
2019-05-03T21:23:30.640Z,96604.05
2019-05-03T21:26:09.052Z,96603.97
2019-05-03T21:28:34.540Z,96600.13
2019-05-03T21:31:05.607Z,96599.29
2019-05-03T21:33:35.581Z,96601.06
2019-05-03T21:36:05.183Z,96600.63
2019-05-03T21:38:35.495Z,96606.20
2019-05-03T21:41:05.433Z,96599.72
2019-05-03T21:43:35.076Z,96606.52
2019-05-03T21:46:10.322Z,96606.82
2019-05-03T21:48:50.731Z,96602.13
2019-05-03T21:51:20.330Z,96594.87
2019-05-03T21:53:49.926Z,96599.31
2019-05-03T21:56:19.477Z,96608.50
2019-05-03T21:58:49.172Z,96603.64
2019-05-03T22:01:18.841Z,96598.28
2019-05-03T22:03:48.539Z,96596.91
2019-05-03T22:06:18.159Z,96599.45
2019-05-03T22:08:47.835Z,96596.59
2019-05-03T22:11:17.437Z,96591.38
2019-05-03T22:13:48.712Z,96593.25
2019-05-03T22:16:35.723Z,96586.95
2019-05-03T22:19:05.347Z,96586.89
2019-05-03T22:21:45.260Z,96586.30
2019-05-03T22:24:27.869Z,96581.94
2019-05-03T22:27:10.337Z,96583.69
2019-05-03T22:29:39.926Z,96581.17
2019-05-03T22:32:09.425Z,96580.05
2019-05-03T22:34:39.053Z,96580.59
2019-05-03T22:37:08.622Z,96575.25
2019-05-03T22:39:38.253Z,96575.02
2019-05-03T22:42:07.862Z,96576.36
2019-05-03T22:44:37.596Z,96571.03
2019-05-03T22:47:07.225Z,96571.73
2019-05-03T22:49:37.304Z,96573.10
2019-05-03T22:52:07.129Z,96563.55
2019-05-03T22:54:36.641Z,96561.59
2019-05-03T22:57:06.156Z,96559.02
2019-05-03T22:59:35.876Z,96555.34
2019-05-03T23:02:05.554Z,96554.32
2019-05-03T23:04:35.565Z,96547.63
2019-05-03T23:07:05.621Z,96550.66
2019-05-03T23:09:35.382Z,96542.66
2019-05-03T23:12:05.544Z,96548.66
2019-05-03T23:14:35.067Z,96541.91
2019-05-03T23:17:04.803Z,96531.48
2019-05-03T23:19:35.980Z,96536.33
2019-05-03T23:22:16.148Z,96525.21
2019-05-03T23:24:45.696Z,96517.17
2019-05-03T23:27:15.317Z,96521.27
2019-05-03T23:29:45.402Z,96516.48
2019-05-03T23:32:15.283Z,96513.70
2019-05-03T23:34:46.391Z,96502.00
2019-05-03T23:37:16.085Z,96512.24
2019-05-03T23:39:45.625Z,96511.42
2019-05-03T23:42:15.541Z,96499.72
2019-05-03T23:44:45.736Z,96498.89
2019-05-03T23:47:40.238Z,96498.98
2019-05-03T23:50:12.120Z,96502.08
2019-05-03T23:52:41.615Z,96492.88
2019-05-03T23:55:36.213Z,96491.44
2019-05-03T23:58:05.777Z,96489.01
